sensor_id;sensor_type;location;lat;lon;timestamp;P1;durP1;ratioP1;P2;durP2;ratioP2
50757;SDS011;36732;47.980;11.652;2024-02-16T00:00:05;2.78;;;1.77;;
50757;SDS011;36732;47.980;11.652;2024-02-16T00:02:32;2.15;;;1.73;;
50757;SDS011;36732;47.980;11.652;2024-02-16T00:04:58;2.33;;;1.48;;
50757;SDS011;36732;47.980;11.652;2024-02-16T00:07:24;2.70;;;1.80;;
50757;SDS011;36732;47.980;11.652;2024-02-16T00:09:50;1.70;;;1.60;;
50757;SDS011;36732;47.980;11.652;2024-02-16T00:12:15;2.17;;;1.65;;
50757;SDS011;36732;47.980;11.652;2024-02-16T00:14:41;2.65;;;1.63;;
50757;SDS011;36732;47.980;11.652;2024-02-16T00:17:07;1.60;;;1.33;;
50757;SDS011;36732;47.980;11.652;2024-02-16T00:19:35;1.45;;;1.30;;
50757;SDS011;36732;47.980;11.652;2024-02-16T00:22:01;2.17;;;1.40;;
50757;SDS011;36732;47.980;11.652;2024-02-16T00:24:27;1.70;;;1.30;;
50757;SDS011;36732;47.980;11.652;2024-02-16T00:26:53;1.45;;;1.13;;
50757;SDS011;36732;47.980;11.652;2024-02-16T00:29:18;2.67;;;1.30;;
50757;SDS011;36732;47.980;11.652;2024-02-16T00:31:44;1.85;;;1.50;;
50757;SDS011;36732;47.980;11.652;2024-02-16T00:34:10;2.33;;;1.63;;
50757;SDS011;36732;47.980;11.652;2024-02-16T00:36:36;3.47;;;1.20;;
50757;SDS011;36732;47.980;11.652;2024-02-16T00:39:02;1.25;;;1.10;;
50757;SDS011;36732;47.980;11.652;2024-02-16T00:41:28;1.50;;;1.10;;
50757;SDS011;36732;47.980;11.652;2024-02-16T00:43:54;1.73;;;1.20;;
50757;SDS011;36732;47.980;11.652;2024-02-16T00:46:21;1.10;;;1.00;;
50757;SDS011;36732;47.980;11.652;2024-02-16T00:48:48;1.50;;;1.20;;
50757;SDS011;36732;47.980;11.652;2024-02-16T00:51:17;1.15;;;1.05;;
50757;SDS011;36732;47.980;11.652;2024-02-16T00:53:43;1.35;;;1.08;;
50757;SDS011;36732;47.980;11.652;2024-02-16T00:56:09;2.03;;;1.20;;
50757;SDS011;36732;47.980;11.652;2024-02-16T00:58:35;2.38;;;1.10;;
50757;SDS011;36732;47.980;11.652;2024-02-16T01:01:01;1.48;;;1.20;;
50757;SDS011;36732;47.980;11.652;2024-02-16T01:03:28;1.20;;;1.10;;
50757;SDS011;36732;47.980;11.652;2024-02-16T01:05:54;1.27;;;0.98;;
50757;SDS011;36732;47.980;11.652;2024-02-16T01:08:20;1.48;;;1.15;;
50757;SDS011;36732;47.980;11.652;2024-02-16T01:10:46;1.92;;;1.23;;
50757;SDS011;36732;47.980;11.652;2024-02-16T01:13:12;1.27;;;1.05;;
50757;SDS011;36732;47.980;11.652;2024-02-16T01:15:37;1.42;;;1.20;;
50757;SDS011;36732;47.980;11.652;2024-02-16T01:18:04;3.05;;;1.30;;
50757;SDS011;36732;47.980;11.652;2024-02-16T01:20:30;1.42;;;1.15;;
50757;SDS011;36732;47.980;11.652;2024-02-16T01:22:56;1.50;;;1.15;;
50757;SDS011;36732;47.980;11.652;2024-02-16T01:25:22;3.53;;;1.50;;
50757;SDS011;36732;47.980;11.652;2024-02-16T01:27:48;1.58;;;1.38;;
50757;SDS011;36732;47.980;11.652;2024-02-16T01:30:14;3.33;;;1.55;;
50757;SDS011;36732;47.980;11.652;2024-02-16T01:32:40;2.47;;;1.33;;
50757;SDS011;36732;47.980;11.652;2024-02-16T01:35:06;1.77;;;1.38;;
50757;SDS011;36732;47.980;11.652;2024-02-16T01:37:32;0.95;;;0.85;;
50757;SDS011;36732;47.980;11.652;2024-02-16T01:39:58;2.15;;;1.38;;
50757;SDS011;36732;47.980;11.652;2024-02-16T01:42:24;2.03;;;1.45;;
50757;SDS011;36732;47.980;11.652;2024-02-16T01:44:50;1.70;;;1.17;;
50757;SDS011;36732;47.980;11.652;2024-02-16T01:47:15;1.70;;;1.10;;
50757;SDS011;36732;47.980;11.652;2024-02-16T01:49:43;1.27;;;1.05;;
50757;SDS011;36732;47.980;11.652;2024-02-16T01:52:10;1.20;;;1.10;;
50757;SDS011;36732;47.980;11.652;2024-02-16T01:54:35;1.58;;;1.02;;
50757;SDS011;36732;47.980;11.652;2024-02-16T01:57:02;2.05;;;1.35;;
50757;SDS011;36732;47.980;11.652;2024-02-16T01:59:30;1.92;;;1.23;;
50757;SDS011;36732;47.980;11.652;2024-02-16T02:01:58;1.85;;;1.30;;
50757;SDS011;36732;47.980;11.652;2024-02-16T02:04:25;1.30;;;1.10;;
50757;SDS011;36732;47.980;11.652;2024-02-16T02:06:51;2.20;;;1.30;;
50757;SDS011;36732;47.980;11.652;2024-02-16T02:09:17;1.52;;;1.20;;
50757;SDS011;36732;47.980;11.652;2024-02-16T02:11:43;1.42;;;1.30;;
50757;SDS011;36732;47.980;11.652;2024-02-16T02:14:09;1.30;;;1.00;;
50757;SDS011;36732;47.980;11.652;2024-02-16T02:16:35;2.15;;;1.48;;
50757;SDS011;36732;47.980;11.652;2024-02-16T02:19:02;1.40;;;1.02;;
50757;SDS011;36732;47.980;11.652;2024-02-16T02:21:28;1.35;;;1.10;;
50757;SDS011;36732;47.980;11.652;2024-02-16T02:23:53;1.52;;;1.20;;
50757;SDS011;36732;47.980;11.652;2024-02-16T02:26:20;1.27;;;1.00;;
50757;SDS011;36732;47.980;11.652;2024-02-16T02:28:46;0.82;;;0.80;;
50757;SDS011;36732;47.980;11.652;2024-02-16T02:31:12;2.33;;;1.05;;
50757;SDS011;36732;47.980;11.652;2024-02-16T02:33:38;1.15;;;0.90;;
50757;SDS011;36732;47.980;11.652;2024-02-16T02:36:04;1.95;;;1.15;;
50757;SDS011;36732;47.980;11.652;2024-02-16T02:38:30;2.45;;;0.80;;
50757;SDS011;36732;47.980;11.652;2024-02-16T02:40:56;1.30;;;0.90;;
50757;SDS011;36732;47.980;11.652;2024-02-16T02:43:21;1.48;;;1.00;;
50757;SDS011;36732;47.980;11.652;2024-02-16T02:45:48;1.13;;;0.90;;
50757;SDS011;36732;47.980;11.652;2024-02-16T02:48:14;1.05;;;0.90;;
50757;SDS011;36732;47.980;11.652;2024-02-16T02:50:39;0.98;;;0.88;;
50757;SDS011;36732;47.980;11.652;2024-02-16T02:53:05;2.55;;;1.20;;
50757;SDS011;36732;47.980;11.652;2024-02-16T02:55:31;1.17;;;0.90;;
50757;SDS011;36732;47.980;11.652;2024-02-16T02:57:56;1.13;;;0.93;;
50757;SDS011;36732;47.980;11.652;2024-02-16T03:00:23;1.50;;;1.10;;
50757;SDS011;36732;47.980;11.652;2024-02-16T03:02:48;1.15;;;0.70;;
50757;SDS011;36732;47.980;11.652;2024-02-16T03:05:14;1.35;;;0.80;;
50757;SDS011;36732;47.980;11.652;2024-02-16T03:07:40;1.77;;;1.10;;
50757;SDS011;36732;47.980;11.652;2024-02-16T03:10:06;1.83;;;0.90;;
50757;SDS011;36732;47.980;11.652;2024-02-16T03:12:35;1.23;;;0.88;;
50757;SDS011;36732;47.980;11.652;2024-02-16T03:15:01;2.45;;;0.90;;
50757;SDS011;36732;47.980;11.652;2024-02-16T03:17:26;1.10;;;0.80;;
50757;SDS011;36732;47.980;11.652;2024-02-16T03:19:52;1.77;;;1.13;;
50757;SDS011;36732;47.980;11.652;2024-02-16T03:22:18;1.10;;;0.88;;
50757;SDS011;36732;47.980;11.652;2024-02-16T03:24:43;1.65;;;1.10;;
50757;SDS011;36732;47.980;11.652;2024-02-16T03:27:10;1.40;;;0.90;;
50757;SDS011;36732;47.980;11.652;2024-02-16T03:29:36;0.98;;;0.77;;
50757;SDS011;36732;47.980;11.652;2024-02-16T03:32:02;1.48;;;1.05;;
50757;SDS011;36732;47.980;11.652;2024-02-16T03:34:28;3.78;;;1.02;;
50757;SDS011;36732;47.980;11.652;2024-02-16T03:36:55;1.33;;;0.70;;
50757;SDS011;36732;47.980;11.652;2024-02-16T03:39:20;1.27;;;0.77;;
50757;SDS011;36732;47.980;11.652;2024-02-16T03:41:47;0.90;;;0.63;;
50757;SDS011;36732;47.980;11.652;2024-02-16T03:44:14;0.60;;;0.60;;
50757;SDS011;36732;47.980;11.652;2024-02-16T03:46:41;0.68;;;0.52;;
50757;SDS011;36732;47.980;11.652;2024-02-16T03:49:08;0.98;;;0.63;;
50757;SDS011;36732;47.980;11.652;2024-02-16T03:51:35;2.33;;;0.70;;
50757;SDS011;36732;47.980;11.652;2024-02-16T03:54:01;3.05;;;0.85;;
50757;SDS011;36732;47.980;11.652;2024-02-16T03:56:27;0.85;;;0.65;;
50757;SDS011;36732;47.980;11.652;2024-02-16T03:58:53;1.48;;;0.60;;
50757;SDS011;36732;47.980;11.652;2024-02-16T04:01:19;1.88;;;1.08;;
50757;SDS011;36732;47.980;11.652;2024-02-16T04:03:44;2.15;;;1.00;;
50757;SDS011;36732;47.980;11.652;2024-02-16T04:06:10;1.20;;;1.00;;
50757;SDS011;36732;47.980;11.652;2024-02-16T04:08:36;1.48;;;0.80;;
50757;SDS011;36732;47.980;11.652;2024-02-16T04:11:01;1.40;;;0.90;;
50757;SDS011;36732;47.980;11.652;2024-02-16T04:13:27;1.08;;;0.85;;
50757;SDS011;36732;47.980;11.652;2024-02-16T04:15:53;1.05;;;0.90;;
50757;SDS011;36732;47.980;11.652;2024-02-16T04:18:19;1.10;;;0.75;;
50757;SDS011;36732;47.980;11.652;2024-02-16T04:20:44;0.77;;;0.55;;
50757;SDS011;36732;47.980;11.652;2024-02-16T04:23:10;0.85;;;0.50;;
50757;SDS011;36732;47.980;11.652;2024-02-16T04:25:36;1.65;;;1.15;;
50757;SDS011;36732;47.980;11.652;2024-02-16T04:28:01;1.92;;;1.05;;
50757;SDS011;36732;47.980;11.652;2024-02-16T04:30:27;1.88;;;0.98;;
50757;SDS011;36732;47.980;11.652;2024-02-16T04:32:53;1.90;;;1.20;;
50757;SDS011;36732;47.980;11.652;2024-02-16T04:35:19;1.42;;;1.10;;
50757;SDS011;36732;47.980;11.652;2024-02-16T04:37:44;1.73;;;1.17;;
50757;SDS011;36732;47.980;11.652;2024-02-16T04:40:10;2.75;;;0.90;;
50757;SDS011;36732;47.980;11.652;2024-02-16T04:42:39;1.42;;;0.90;;
50757;SDS011;36732;47.980;11.652;2024-02-16T04:45:10;0.82;;;0.80;;
50757;SDS011;36732;47.980;11.652;2024-02-16T04:47:37;1.20;;;0.85;;
50757;SDS011;36732;47.980;11.652;2024-02-16T04:50:03;1.90;;;0.80;;
50757;SDS011;36732;47.980;11.652;2024-02-16T04:52:30;1.40;;;1.00;;
50757;SDS011;36732;47.980;11.652;2024-02-16T04:54:56;1.08;;;0.85;;
50757;SDS011;36732;47.980;11.652;2024-02-16T04:57:22;1.52;;;0.68;;
50757;SDS011;36732;47.980;11.652;2024-02-16T04:59:47;0.60;;;0.60;;
50757;SDS011;36732;47.980;11.652;2024-02-16T05:02:13;1.20;;;0.85;;
50757;SDS011;36732;47.980;11.652;2024-02-16T05:04:39;1.67;;;0.85;;
50757;SDS011;36732;47.980;11.652;2024-02-16T05:07:04;1.55;;;0.82;;
50757;SDS011;36732;47.980;11.652;2024-02-16T05:09:32;0.90;;;0.80;;
50757;SDS011;36732;47.980;11.652;2024-02-16T05:11:57;1.25;;;0.90;;
50757;SDS011;36732;47.980;11.652;2024-02-16T05:14:23;1.77;;;0.70;;
50757;SDS011;36732;47.980;11.652;2024-02-16T05:16:49;2.83;;;0.65;;
50757;SDS011;36732;47.980;11.652;2024-02-16T05:19:16;1.83;;;0.82;;
50757;SDS011;36732;47.980;11.652;2024-02-16T05:21:41;1.00;;;0.70;;
50757;SDS011;36732;47.980;11.652;2024-02-16T05:24:07;2.35;;;0.82;;
50757;SDS011;36732;47.980;11.652;2024-02-16T05:26:33;1.65;;;0.70;;
50757;SDS011;36732;47.980;11.652;2024-02-16T05:28:59;0.70;;;0.70;;
50757;SDS011;36732;47.980;11.652;2024-02-16T05:31:25;0.68;;;0.43;;
50757;SDS011;36732;47.980;11.652;2024-02-16T05:33:50;1.98;;;0.60;;
50757;SDS011;36732;47.980;11.652;2024-02-16T05:36:17;1.50;;;1.08;;
50757;SDS011;36732;47.980;11.652;2024-02-16T05:38:45;0.70;;;0.60;;
50757;SDS011;36732;47.980;11.652;2024-02-16T05:41:12;1.27;;;0.68;;
50757;SDS011;36732;47.980;11.652;2024-02-16T05:43:37;2.13;;;0.70;;
50757;SDS011;36732;47.980;11.652;2024-02-16T05:46:04;0.70;;;0.52;;
50757;SDS011;36732;47.980;11.652;2024-02-16T05:48:35;1.00;;;0.45;;
50757;SDS011;36732;47.980;11.652;2024-02-16T05:51:05;1.33;;;0.73;;
50757;SDS011;36732;47.980;11.652;2024-02-16T05:53:31;2.08;;;0.80;;
50757;SDS011;36732;47.980;11.652;2024-02-16T05:55:58;0.60;;;0.60;;
50757;SDS011;36732;47.980;11.652;2024-02-16T05:58:24;1.75;;;0.70;;
50757;SDS011;36732;47.980;11.652;2024-02-16T06:00:51;1.00;;;0.73;;
50757;SDS011;36732;47.980;11.652;2024-02-16T06:03:16;0.82;;;0.60;;
50757;SDS011;36732;47.980;11.652;2024-02-16T06:05:42;1.77;;;0.55;;
50757;SDS011;36732;47.980;11.652;2024-02-16T06:08:11;0.75;;;0.73;;
50757;SDS011;36732;47.980;11.652;2024-02-16T06:10:38;0.82;;;0.68;;
50757;SDS011;36732;47.980;11.652;2024-02-16T06:13:04;1.88;;;0.80;;
50757;SDS011;36732;47.980;11.652;2024-02-16T06:15:31;1.67;;;0.88;;
50757;SDS011;36732;47.980;11.652;2024-02-16T06:17:58;1.30;;;0.80;;
50757;SDS011;36732;47.980;11.652;2024-02-16T06:20:25;1.67;;;0.95;;
50757;SDS011;36732;47.980;11.652;2024-02-16T06:22:51;2.13;;;1.10;;
50757;SDS011;36732;47.980;11.652;2024-02-16T06:25:17;1.02;;;0.93;;
50757;SDS011;36732;47.980;11.652;2024-02-16T06:27:43;1.20;;;1.10;;
50757;SDS011;36732;47.980;11.652;2024-02-16T06:30:09;1.52;;;1.02;;
50757;SDS011;36732;47.980;11.652;2024-02-16T06:32:38;3.05;;;1.50;;
50757;SDS011;36732;47.980;11.652;2024-02-16T06:35:05;2.60;;;1.77;;
50757;SDS011;36732;47.980;11.652;2024-02-16T06:37:36;2.85;;;1.45;;
50757;SDS011;36732;47.980;11.652;2024-02-16T06:40:05;1.65;;;1.55;;
50757;SDS011;36732;47.980;11.652;2024-02-16T06:42:35;2.10;;;1.80;;
50757;SDS011;36732;47.980;11.652;2024-02-16T06:45:01;2.55;;;1.52;;
50757;SDS011;36732;47.980;11.652;2024-02-16T06:47:28;4.80;;;1.35;;
50757;SDS011;36732;47.980;11.652;2024-02-16T06:49:54;4.38;;;1.60;;
50757;SDS011;36732;47.980;11.652;2024-02-16T06:52:20;3.72;;;1.35;;
50757;SDS011;36732;47.980;11.652;2024-02-16T06:54:45;2.75;;;1.67;;
50757;SDS011;36732;47.980;11.652;2024-02-16T06:57:11;3.85;;;1.83;;
50757;SDS011;36732;47.980;11.652;2024-02-16T06:59:37;3.33;;;1.80;;
50757;SDS011;36732;47.980;11.652;2024-02-16T07:02:02;2.15;;;1.38;;
50757;SDS011;36732;47.980;11.652;2024-02-16T07:04:28;1.65;;;1.40;;
50757;SDS011;36732;47.980;11.652;2024-02-16T07:06:54;2.75;;;1.58;;
50757;SDS011;36732;47.980;11.652;2024-02-16T07:09:20;2.17;;;1.23;;
50757;SDS011;36732;47.980;11.652;2024-02-16T07:11:47;1.48;;;1.25;;
50757;SDS011;36732;47.980;11.652;2024-02-16T07:14:15;1.90;;;1.60;;
50757;SDS011;36732;47.980;11.652;2024-02-16T07:16:41;1.85;;;1.40;;
50757;SDS011;36732;47.980;11.652;2024-02-16T07:19:07;2.63;;;1.48;;
50757;SDS011;36732;47.980;11.652;2024-02-16T07:21:33;2.00;;;1.38;;
50757;SDS011;36732;47.980;11.652;2024-02-16T07:23:59;2.65;;;1.50;;
50757;SDS011;36732;47.980;11.652;2024-02-16T07:26:25;2.47;;;1.38;;
50757;SDS011;36732;47.980;11.652;2024-02-16T07:28:50;3.15;;;1.40;;
50757;SDS011;36732;47.980;11.652;2024-02-16T07:31:16;2.20;;;1.50;;
50757;SDS011;36732;47.980;11.652;2024-02-16T07:33:42;2.80;;;1.80;;
50757;SDS011;36732;47.980;11.652;2024-02-16T07:36:08;2.42;;;1.83;;
50757;SDS011;36732;47.980;11.652;2024-02-16T07:38:35;4.10;;;1.80;;
50757;SDS011;36732;47.980;11.652;2024-02-16T07:41:01;3.80;;;1.83;;
50757;SDS011;36732;47.980;11.652;2024-02-16T07:43:27;2.38;;;2.00;;
50757;SDS011;36732;47.980;11.652;2024-02-16T07:45:53;3.90;;;2.15;;
50757;SDS011;36732;47.980;11.652;2024-02-16T07:48:19;2.95;;;2.15;;
50757;SDS011;36732;47.980;11.652;2024-02-16T07:50:46;2.92;;;2.10;;
50757;SDS011;36732;47.980;11.652;2024-02-16T07:53:13;2.67;;;1.88;;
50757;SDS011;36732;47.980;11.652;2024-02-16T07:55:39;2.80;;;1.85;;
50757;SDS011;36732;47.980;11.652;2024-02-16T07:58:04;3.63;;;1.65;;
50757;SDS011;36732;47.980;11.652;2024-02-16T08:00:30;3.22;;;1.75;;
50757;SDS011;36732;47.980;11.652;2024-02-16T08:02:56;2.92;;;1.35;;
50757;SDS011;36732;47.980;11.652;2024-02-16T08:05:22;3.47;;;1.70;;
50757;SDS011;36732;47.980;11.652;2024-02-16T08:07:49;2.80;;;1.48;;
50757;SDS011;36732;47.980;11.652;2024-02-16T08:10:15;3.72;;;1.88;;
50757;SDS011;36732;47.980;11.652;2024-02-16T08:12:45;2.92;;;1.70;;
50757;SDS011;36732;47.980;11.652;2024-02-16T08:15:11;1.73;;;1.23;;
50757;SDS011;36732;47.980;11.652;2024-02-16T08:17:39;5.63;;;1.50;;
50757;SDS011;36732;47.980;11.652;2024-02-16T08:20:05;2.33;;;1.20;;
50757;SDS011;36732;47.980;11.652;2024-02-16T08:22:32;3.65;;;1.13;;
50757;SDS011;36732;47.980;11.652;2024-02-16T08:24:59;3.58;;;1.40;;
50757;SDS011;36732;47.980;11.652;2024-02-16T08:27:24;5.80;;;1.33;;
50757;SDS011;36732;47.980;11.652;2024-02-16T08:29:50;3.42;;;1.52;;
50757;SDS011;36732;47.980;11.652;2024-02-16T08:32:19;2.55;;;1.40;;
50757;SDS011;36732;47.980;11.652;2024-02-16T08:34:45;1.98;;;1.20;;
50757;SDS011;36732;47.980;11.652;2024-02-16T08:37:13;5.45;;;1.60;;
50757;SDS011;36732;47.980;11.652;2024-02-16T08:39:39;2.00;;;1.27;;
50757;SDS011;36732;47.980;11.652;2024-02-16T08:42:06;2.78;;;1.48;;
50757;SDS011;36732;47.980;11.652;2024-02-16T08:44:33;3.15;;;1.42;;
50757;SDS011;36732;47.980;11.652;2024-02-16T08:47:00;3.80;;;1.48;;
50757;SDS011;36732;47.980;11.652;2024-02-16T08:49:25;4.05;;;1.40;;
50757;SDS011;36732;47.980;11.652;2024-02-16T08:51:51;2.53;;;1.67;;
50757;SDS011;36732;47.980;11.652;2024-02-16T08:54:17;2.00;;;1.40;;
50757;SDS011;36732;47.980;11.652;2024-02-16T08:56:43;2.00;;;1.35;;
50757;SDS011;36732;47.980;11.652;2024-02-16T08:59:10;1.55;;;1.27;;
50757;SDS011;36732;47.980;11.652;2024-02-16T09:01:37;1.52;;;1.10;;
50757;SDS011;36732;47.980;11.652;2024-02-16T09:04:04;1.77;;;1.08;;
50757;SDS011;36732;47.980;11.652;2024-02-16T09:06:30;2.50;;;1.20;;
50757;SDS011;36732;47.980;11.652;2024-02-16T09:08:56;3.92;;;1.02;;
50757;SDS011;36732;47.980;11.652;2024-02-16T09:11:22;2.00;;;1.20;;
50757;SDS011;36732;47.980;11.652;2024-02-16T09:13:48;1.50;;;1.10;;
50757;SDS011;36732;47.980;11.652;2024-02-16T09:16:15;1.30;;;1.00;;
50757;SDS011;36732;47.980;11.652;2024-02-16T09:18:41;1.38;;;0.90;;
50757;SDS011;36732;47.980;11.652;2024-02-16T09:21:06;1.77;;;1.10;;
50757;SDS011;36732;47.980;11.652;2024-02-16T09:23:33;1.33;;;0.82;;
50757;SDS011;36732;47.980;11.652;2024-02-16T09:26:00;1.40;;;0.80;;
50757;SDS011;36732;47.980;11.652;2024-02-16T09:28:29;0.80;;;0.60;;
50757;SDS011;36732;47.980;11.652;2024-02-16T09:30:55;3.78;;;1.05;;
50757;SDS011;36732;47.980;11.652;2024-02-16T09:33:22;1.52;;;0.88;;
50757;SDS011;36732;47.980;11.652;2024-02-16T09:35:49;0.45;;;0.40;;
50757;SDS011;36732;47.980;11.652;2024-02-16T09:38:15;2.28;;;0.65;;
50757;SDS011;36732;47.980;11.652;2024-02-16T09:40:41;1.90;;;0.70;;
50757;SDS011;36732;47.980;11.652;2024-02-16T09:43:07;0.80;;;0.60;;
50757;SDS011;36732;47.980;11.652;2024-02-16T09:45:33;0.63;;;0.60;;
50757;SDS011;36732;47.980;11.652;2024-02-16T09:47:59;0.60;;;0.50;;
50757;SDS011;36732;47.980;11.652;2024-02-16T09:50:27;0.88;;;0.50;;
50757;SDS011;36732;47.980;11.652;2024-02-16T09:52:55;1.00;;;0.50;;
50757;SDS011;36732;47.980;11.652;2024-02-16T09:55:21;0.47;;;0.40;;
50757;SDS011;36732;47.980;11.652;2024-02-16T09:57:57;0.85;;;0.60;;
50757;SDS011;36732;47.980;11.652;2024-02-16T10:00:27;0.43;;;0.40;;
50757;SDS011;36732;47.980;11.652;2024-02-16T10:02:52;1.00;;;0.60;;
50757;SDS011;36732;47.980;11.652;2024-02-16T10:05:21;1.75;;;0.70;;
50757;SDS011;36732;47.980;11.652;2024-02-16T10:07:48;0.57;;;0.45;;
50757;SDS011;36732;47.980;11.652;2024-02-16T10:10:20;0.65;;;0.45;;
50757;SDS011;36732;47.980;11.652;2024-02-16T10:13:04;1.90;;;0.50;;
50757;SDS011;36732;47.980;11.652;2024-02-16T10:15:34;0.60;;;0.50;;
50757;SDS011;36732;47.980;11.652;2024-02-16T10:18:06;1.27;;;0.75;;
50757;SDS011;36732;47.980;11.652;2024-02-16T10:20:33;0.73;;;0.50;;
50757;SDS011;36732;47.980;11.652;2024-02-16T10:25:28;0.75;;;0.40;;
50757;SDS011;36732;47.980;11.652;2024-02-16T10:27:54;0.77;;;0.55;;
50757;SDS011;36732;47.980;11.652;2024-02-16T10:30:23;0.68;;;0.50;;
50757;SDS011;36732;47.980;11.652;2024-02-16T10:32:55;0.40;;;0.38;;
50757;SDS011;36732;47.980;11.652;2024-02-16T10:35:22;2.05;;;0.52;;
50757;SDS011;36732;47.980;11.652;2024-02-16T10:37:50;1.80;;;0.47;;
50757;SDS011;36732;47.980;11.652;2024-02-16T10:40:17;0.93;;;0.60;;
50757;SDS011;36732;47.980;11.652;2024-02-16T10:42:47;0.40;;;0.40;;
50757;SDS011;36732;47.980;11.652;2024-02-16T10:45:18;0.90;;;0.57;;
50757;SDS011;36732;47.980;11.652;2024-02-16T10:47:44;1.60;;;0.60;;
50757;SDS011;36732;47.980;11.652;2024-02-16T10:50:10;0.82;;;0.60;;
50757;SDS011;36732;47.980;11.652;2024-02-16T10:52:37;0.55;;;0.50;;
50757;SDS011;36732;47.980;11.652;2024-02-16T10:55:06;0.60;;;0.50;;
50757;SDS011;36732;47.980;11.652;2024-02-16T10:57:35;1.63;;;0.90;;
50757;SDS011;36732;47.980;11.652;2024-02-16T11:00:06;0.50;;;0.40;;
50757;SDS011;36732;47.980;11.652;2024-02-16T11:02:52;0.47;;;0.47;;
50757;SDS011;36732;47.980;11.652;2024-02-16T11:05:36;0.85;;;0.60;;
50757;SDS011;36732;47.980;11.652;2024-02-16T11:08:16;1.27;;;0.63;;
50757;SDS011;36732;47.980;11.652;2024-02-16T11:10:57;0.73;;;0.55;;
50757;SDS011;36732;47.980;11.652;2024-02-16T11:13:27;1.17;;;0.55;;
50757;SDS011;36732;47.980;11.652;2024-02-16T11:15:57;2.70;;;0.50;;
50757;SDS011;36732;47.980;11.652;2024-02-16T11:18:37;0.70;;;0.55;;
50757;SDS011;36732;47.980;11.652;2024-02-16T11:21:12;2.25;;;0.65;;
50757;SDS011;36732;47.980;11.652;2024-02-16T11:23:40;1.25;;;0.60;;
50757;SDS011;36732;47.980;11.652;2024-02-16T11:26:09;0.60;;;0.40;;
50757;SDS011;36732;47.980;11.652;2024-02-16T11:28:37;0.75;;;0.70;;
50757;SDS011;36732;47.980;11.652;2024-02-16T11:31:05;1.13;;;0.65;;
50757;SDS011;36732;47.980;11.652;2024-02-16T11:33:32;4.10;;;1.00;;
50757;SDS011;36732;47.980;11.652;2024-02-16T11:36:02;1.77;;;0.60;;
50757;SDS011;36732;47.980;11.652;2024-02-16T11:38:30;0.77;;;0.45;;
50757;SDS011;36732;47.980;11.652;2024-02-16T11:41:09;0.60;;;0.60;;
50757;SDS011;36732;47.980;11.652;2024-02-16T11:43:34;0.75;;;0.50;;
50757;SDS011;36732;47.980;11.652;2024-02-16T11:46:10;1.95;;;0.82;;
50757;SDS011;36732;47.980;11.652;2024-02-16T11:48:40;0.93;;;0.80;;
50757;SDS011;36732;47.980;11.652;2024-02-16T11:51:06;0.80;;;0.68;;
50757;SDS011;36732;47.980;11.652;2024-02-16T11:53:32;1.42;;;0.60;;
50757;SDS011;36732;47.980;11.652;2024-02-16T11:55:58;1.58;;;0.60;;
50757;SDS011;36732;47.980;11.652;2024-02-16T11:58:25;0.40;;;0.38;;
50757;SDS011;36732;47.980;11.652;2024-02-16T12:00:51;0.80;;;0.52;;
50757;SDS011;36732;47.980;11.652;2024-02-16T12:03:26;1.70;;;0.75;;
50757;SDS011;36732;47.980;11.652;2024-02-16T12:08:23;0.60;;;0.57;;
50757;SDS011;36732;47.980;11.652;2024-02-16T12:10:57;0.93;;;0.70;;
50757;SDS011;36732;47.980;11.652;2024-02-16T12:13:22;0.93;;;0.73;;
50757;SDS011;36732;47.980;11.652;2024-02-16T12:15:49;1.17;;;0.70;;
50757;SDS011;36732;47.980;11.652;2024-02-16T12:18:23;0.60;;;0.60;;
50757;SDS011;36732;47.980;11.652;2024-02-16T12:21:03;0.68;;;0.57;;
50757;SDS011;36732;47.980;11.652;2024-02-16T12:23:31;0.82;;;0.65;;
50757;SDS011;36732;47.980;11.652;2024-02-16T12:25:58;1.08;;;0.80;;
50757;SDS011;36732;47.980;11.652;2024-02-16T12:28:26;1.02;;;0.85;;
50757;SDS011;36732;47.980;11.652;2024-02-16T12:30:57;1.05;;;0.80;;
50757;SDS011;36732;47.980;11.652;2024-02-16T12:33:23;1.90;;;0.57;;
50757;SDS011;36732;47.980;11.652;2024-02-16T12:35:49;0.85;;;0.57;;
50757;SDS011;36732;47.980;11.652;2024-02-16T12:38:15;1.58;;;0.70;;
50757;SDS011;36732;47.980;11.652;2024-02-16T12:40:47;0.90;;;0.65;;
50757;SDS011;36732;47.980;11.652;2024-02-16T12:43:13;1.42;;;0.73;;
50757;SDS011;36732;47.980;11.652;2024-02-16T12:45:40;0.90;;;0.68;;
50757;SDS011;36732;47.980;11.652;2024-02-16T12:48:06;1.00;;;0.75;;
50757;SDS011;36732;47.980;11.652;2024-02-16T12:50:33;1.13;;;0.60;;
50757;SDS011;36732;47.980;11.652;2024-02-16T12:52:59;0.80;;;0.70;;
50757;SDS011;36732;47.980;11.652;2024-02-16T12:55:25;0.82;;;0.70;;
50757;SDS011;36732;47.980;11.652;2024-02-16T12:57:50;2.38;;;0.73;;
50757;SDS011;36732;47.980;11.652;2024-02-16T13:00:17;1.70;;;0.70;;
50757;SDS011;36732;47.980;11.652;2024-02-16T13:02:43;0.70;;;0.60;;
50757;SDS011;36732;47.980;11.652;2024-02-16T13:05:09;2.30;;;1.30;;
50757;SDS011;36732;47.980;11.652;2024-02-16T13:07:35;1.27;;;0.80;;
50757;SDS011;36732;47.980;11.652;2024-02-16T13:10:04;2.70;;;0.82;;
50757;SDS011;36732;47.980;11.652;2024-02-16T13:12:31;2.25;;;0.93;;
50757;SDS011;36732;47.980;11.652;2024-02-16T13:14:57;2.80;;;0.80;;
50757;SDS011;36732;47.980;11.652;2024-02-16T13:17:23;3.92;;;1.48;;
50757;SDS011;36732;47.980;11.652;2024-02-16T13:19:49;1.17;;;0.80;;
50757;SDS011;36732;47.980;11.652;2024-02-16T13:22:14;4.35;;;0.88;;
50757;SDS011;36732;47.980;11.652;2024-02-16T13:24:40;8.63;;;1.88;;
50757;SDS011;36732;47.980;11.652;2024-02-16T13:27:06;4.25;;;0.93;;
50757;SDS011;36732;47.980;11.652;2024-02-16T13:29:32;4.25;;;1.30;;
50757;SDS011;36732;47.980;11.652;2024-02-16T13:31:58;1.45;;;0.82;;
50757;SDS011;36732;47.980;11.652;2024-02-16T13:34:25;1.42;;;0.80;;
50757;SDS011;36732;47.980;11.652;2024-02-16T13:36:52;2.33;;;0.90;;
50757;SDS011;36732;47.980;11.652;2024-02-16T13:39:18;1.17;;;0.70;;
50757;SDS011;36732;47.980;11.652;2024-02-16T13:41:44;1.30;;;0.80;;
50757;SDS011;36732;47.980;11.652;2024-02-16T13:44:12;1.55;;;0.70;;
50757;SDS011;36732;47.980;11.652;2024-02-16T13:46:38;1.63;;;0.90;;
50757;SDS011;36732;47.980;11.652;2024-02-16T13:49:04;0.85;;;0.68;;
50757;SDS011;36732;47.980;11.652;2024-02-16T13:51:29;1.63;;;0.82;;
50757;SDS011;36732;47.980;11.652;2024-02-16T13:53:55;1.35;;;0.90;;
50757;SDS011;36732;47.980;11.652;2024-02-16T13:56:21;0.82;;;0.52;;
50757;SDS011;36732;47.980;11.652;2024-02-16T13:58:47;3.97;;;1.08;;
50757;SDS011;36732;47.980;11.652;2024-02-16T14:01:12;1.55;;;0.88;;
50757;SDS011;36732;47.980;11.652;2024-02-16T14:03:39;2.22;;;0.73;;
50757;SDS011;36732;47.980;11.652;2024-02-16T14:06:06;1.80;;;0.90;;
50757;SDS011;36732;47.980;11.652;2024-02-16T14:08:34;1.75;;;0.98;;
50757;SDS011;36732;47.980;11.652;2024-02-16T14:11:01;2.72;;;0.70;;
50757;SDS011;36732;47.980;11.652;2024-02-16T14:13:27;1.45;;;0.80;;
50757;SDS011;36732;47.980;11.652;2024-02-16T14:15:53;2.15;;;0.98;;
50757;SDS011;36732;47.980;11.652;2024-02-16T14:18:19;1.42;;;0.65;;
50757;SDS011;36732;47.980;11.652;2024-02-16T14:20:45;2.65;;;1.10;;
50757;SDS011;36732;47.980;11.652;2024-02-16T14:23:11;2.95;;;0.70;;
50757;SDS011;36732;47.980;11.652;2024-02-16T14:25:36;1.10;;;0.50;;
50757;SDS011;36732;47.980;11.652;2024-02-16T14:28:04;0.70;;;0.60;;
50757;SDS011;36732;47.980;11.652;2024-02-16T14:30:31;1.95;;;0.88;;
50757;SDS011;36732;47.980;11.652;2024-02-16T14:32:58;1.17;;;0.75;;
50757;SDS011;36732;47.980;11.652;2024-02-16T14:35:24;2.25;;;0.60;;